sensor_id;sensor_type;location;lat;lon;timestamp;P1;durP1;ratioP1;P2;durP2;ratioP2
57241;SDS011;43095;53.302;5.786;2023-08-21T00:01:53;9.30;;;5.65;;
57241;SDS011;43095;53.302;5.786;2023-08-21T00:04:20;10.90;;;5.93;;
57241;SDS011;43095;53.302;5.786;2023-08-21T00:06:47;10.07;;;5.68;;
57241;SDS011;43095;53.302;5.786;2023-08-21T00:09:14;9.45;;;5.18;;
57241;SDS011;43095;53.302;5.786;2023-08-21T00:11:41;8.98;;;5.25;;
57241;SDS011;43095;53.302;5.786;2023-08-21T00:14:09;14.95;;;6.32;;
57241;SDS011;43095;53.302;5.786;2023-08-21T00:16:36;8.32;;;4.82;;
57241;SDS011;43095;53.302;5.786;2023-08-21T00:19:03;12.07;;;6.75;;
57241;SDS011;43095;53.302;5.786;2023-08-21T00:21:30;10.75;;;6.45;;
57241;SDS011;43095;53.302;5.786;2023-08-21T00:23:57;9.40;;;5.85;;
57241;SDS011;43095;53.302;5.786;2023-08-21T00:26:25;8.82;;;5.22;;
57241;SDS011;43095;53.302;5.786;2023-08-21T00:28:52;6.22;;;3.75;;
57241;SDS011;43095;53.302;5.786;2023-08-21T00:31:19;8.52;;;4.60;;
57241;SDS011;43095;53.302;5.786;2023-08-21T00:33:46;8.88;;;4.97;;
57241;SDS011;43095;53.302;5.786;2023-08-21T00:36:13;7.20;;;4.60;;
57241;SDS011;43095;53.302;5.786;2023-08-21T00:38:40;8.48;;;5.60;;
57241;SDS011;43095;53.302;5.786;2023-08-21T00:41:07;6.97;;;5.07;;
57241;SDS011;43095;53.302;5.786;2023-08-21T00:43:35;6.45;;;4.85;;
57241;SDS011;43095;53.302;5.786;2023-08-21T00:46:02;8.52;;;5.38;;
57241;SDS011;43095;53.302;5.786;2023-08-21T00:48:29;8.73;;;4.75;;
57241;SDS011;43095;53.302;5.786;2023-08-21T00:50:56;7.25;;;5.10;;
57241;SDS011;43095;53.302;5.786;2023-08-21T00:53:24;8.13;;;5.25;;
57241;SDS011;43095;53.302;5.786;2023-08-21T00:55:51;8.38;;;4.80;;
57241;SDS011;43095;53.302;5.786;2023-08-21T00:58:19;7.18;;;5.00;;
57241;SDS011;43095;53.302;5.786;2023-08-21T01:00:46;6.95;;;4.70;;
57241;SDS011;43095;53.302;5.786;2023-08-21T01:03:16;6.15;;;3.60;;
57241;SDS011;43095;53.302;5.786;2023-08-21T01:05:44;6.43;;;4.15;;
57241;SDS011;43095;53.302;5.786;2023-08-21T01:08:32;10.15;;;4.22;;
57241;SDS011;43095;53.302;5.786;2023-08-21T01:14:31;6.70;;;4.47;;
57241;SDS011;43095;53.302;5.786;2023-08-21T01:17:17;8.90;;;4.95;;
57241;SDS011;43095;53.302;5.786;2023-08-21T01:19:47;9.02;;;5.15;;
57241;SDS011;43095;53.302;5.786;2023-08-21T01:22:16;8.02;;;4.20;;
57241;SDS011;43095;53.302;5.786;2023-08-21T01:24:43;8.68;;;4.85;;
57241;SDS011;43095;53.302;5.786;2023-08-21T01:27:15;6.88;;;4.43;;
57241;SDS011;43095;53.302;5.786;2023-08-21T01:29:43;8.90;;;4.90;;
57241;SDS011;43095;53.302;5.786;2023-08-21T01:34:58;13.02;;;6.22;;
57241;SDS011;43095;53.302;5.786;2023-08-21T01:37:29;8.82;;;4.47;;
57241;SDS011;43095;53.302;5.786;2023-08-21T01:39:58;9.23;;;5.03;;
57241;SDS011;43095;53.302;5.786;2023-08-21T01:42:25;8.13;;;4.88;;
57241;SDS011;43095;53.302;5.786;2023-08-21T01:44:52;13.32;;;5.53;;
57241;SDS011;43095;53.302;5.786;2023-08-21T01:47:20;12.45;;;5.15;;
57241;SDS011;43095;53.302;5.786;2023-08-21T01:49:47;10.20;;;5.57;;
57241;SDS011;43095;53.302;5.786;2023-08-21T01:52:16;8.55;;;5.35;;
57241;SDS011;43095;53.302;5.786;2023-08-21T01:54:43;10.98;;;5.95;;
57241;SDS011;43095;53.302;5.786;2023-08-21T01:57:10;8.05;;;4.03;;
57241;SDS011;43095;53.302;5.786;2023-08-21T01:59:37;8.68;;;4.82;;
57241;SDS011;43095;53.302;5.786;2023-08-21T02:02:05;6.97;;;4.53;;
57241;SDS011;43095;53.302;5.786;2023-08-21T02:04:32;7.63;;;3.92;;
57241;SDS011;43095;53.302;5.786;2023-08-21T02:07:03;7.25;;;4.10;;
57241;SDS011;43095;53.302;5.786;2023-08-21T02:09:30;6.65;;;4.03;;
57241;SDS011;43095;53.302;5.786;2023-08-21T02:11:58;9.02;;;4.80;;
57241;SDS011;43095;53.302;5.786;2023-08-21T02:14:25;6.15;;;4.28;;
57241;SDS011;43095;53.302;5.786;2023-08-21T02:16:53;6.63;;;4.55;;
57241;SDS011;43095;53.302;5.786;2023-08-21T02:19:20;10.15;;;5.15;;
57241;SDS011;43095;53.302;5.786;2023-08-21T02:21:47;10.10;;;5.07;;
57241;SDS011;43095;53.302;5.786;2023-08-21T02:24:14;7.72;;;4.53;;
57241;SDS011;43095;53.302;5.786;2023-08-21T02:26:43;6.70;;;4.15;;
57241;SDS011;43095;53.302;5.786;2023-08-21T02:29:12;8.15;;;4.05;;
57241;SDS011;43095;53.302;5.786;2023-08-21T02:31:39;6.97;;;4.28;;
57241;SDS011;43095;53.302;5.786;2023-08-21T02:34:06;7.00;;;3.55;;
57241;SDS011;43095;53.302;5.786;2023-08-21T02:36:33;5.05;;;3.78;;
57241;SDS011;43095;53.302;5.786;2023-08-21T02:39:00;5.28;;;3.45;;
57241;SDS011;43095;53.302;5.786;2023-08-21T02:41:31;8.02;;;4.55;;
57241;SDS011;43095;53.302;5.786;2023-08-21T02:43:59;7.63;;;4.43;;
57241;SDS011;43095;53.302;5.786;2023-08-21T02:46:26;7.20;;;3.65;;
57241;SDS011;43095;53.302;5.786;2023-08-21T02:48:54;4.28;;;2.75;;
57241;SDS011;43095;53.302;5.786;2023-08-21T02:51:21;7.43;;;3.20;;
57241;SDS011;43095;53.302;5.786;2023-08-21T02:53:49;4.40;;;2.70;;
57241;SDS011;43095;53.302;5.786;2023-08-21T02:56:16;6.20;;;3.17;;
57241;SDS011;43095;53.302;5.786;2023-08-21T02:58:43;7.03;;;4.07;;
57241;SDS011;43095;53.302;5.786;2023-08-21T03:01:10;7.43;;;4.20;;
57241;SDS011;43095;53.302;5.786;2023-08-21T03:03:38;6.60;;;4.25;;
57241;SDS011;43095;53.302;5.786;2023-08-21T03:06:05;6.85;;;4.70;;
57241;SDS011;43095;53.302;5.786;2023-08-21T03:08:32;5.50;;;3.65;;
57241;SDS011;43095;53.302;5.786;2023-08-21T03:10:59;6.10;;;3.80;;
57241;SDS011;43095;53.302;5.786;2023-08-21T03:13:26;6.18;;;4.20;;
57241;SDS011;43095;53.302;5.786;2023-08-21T03:15:54;8.57;;;4.20;;
57241;SDS011;43095;53.302;5.786;2023-08-21T03:18:21;9.02;;;4.40;;
57241;SDS011;43095;53.302;5.786;2023-08-21T03:20:48;6.60;;;3.50;;
57241;SDS011;43095;53.302;5.786;2023-08-21T03:23:16;7.30;;;4.32;;
57241;SDS011;43095;53.302;5.786;2023-08-21T03:25:43;4.22;;;3.40;;
57241;SDS011;43095;53.302;5.786;2023-08-21T03:28:10;5.90;;;4.10;;
57241;SDS011;43095;53.302;5.786;2023-08-21T03:30:39;6.00;;;3.70;;
57241;SDS011;43095;53.302;5.786;2023-08-21T03:33:06;7.90;;;3.92;;
57241;SDS011;43095;53.302;5.786;2023-08-21T03:35:35;5.75;;;3.55;;
57241;SDS011;43095;53.302;5.786;2023-08-21T03:38:03;4.22;;;3.55;;
57241;SDS011;43095;53.302;5.786;2023-08-21T03:40:39;4.90;;;3.60;;
57241;SDS011;43095;53.302;5.786;2023-08-21T03:43:06;6.50;;;4.78;;
57241;SDS011;43095;53.302;5.786;2023-08-21T03:45:33;8.68;;;4.53;;
57241;SDS011;43095;53.302;5.786;2023-08-21T03:48:03;8.15;;;3.95;;
57241;SDS011;43095;53.302;5.786;2023-08-21T03:50:30;6.20;;;3.30;;
57241;SDS011;43095;53.302;5.786;2023-08-21T03:52:58;6.70;;;3.70;;
57241;SDS011;43095;53.302;5.786;2023-08-21T03:55:25;6.15;;;3.67;;
57241;SDS011;43095;53.302;5.786;2023-08-21T03:57:52;5.18;;;3.42;;
57241;SDS011;43095;53.302;5.786;2023-08-21T04:00:20;5.35;;;3.30;;
57241;SDS011;43095;53.302;5.786;2023-08-21T04:02:49;5.28;;;3.78;;
57241;SDS011;43095;53.302;5.786;2023-08-21T04:05:16;9.40;;;4.15;;
57241;SDS011;43095;53.302;5.786;2023-08-21T04:07:43;4.95;;;3.45;;
57241;SDS011;43095;53.302;5.786;2023-08-21T04:10:10;7.95;;;4.40;;
57241;SDS011;43095;53.302;5.786;2023-08-21T04:12:37;5.50;;;3.75;;
57241;SDS011;43095;53.302;5.786;2023-08-21T04:15:05;4.25;;;2.97;;
57241;SDS011;43095;53.302;5.786;2023-08-21T04:17:34;5.72;;;3.35;;
57241;SDS011;43095;53.302;5.786;2023-08-21T04:20:01;6.00;;;3.28;;
57241;SDS011;43095;53.302;5.786;2023-08-21T04:22:28;5.70;;;2.90;;
57241;SDS011;43095;53.302;5.786;2023-08-21T04:24:55;6.43;;;3.45;;
57241;SDS011;43095;53.302;5.786;2023-08-21T04:27:23;3.53;;;2.88;;
57241;SDS011;43095;53.302;5.786;2023-08-21T04:29:50;6.55;;;3.40;;
57241;SDS011;43095;53.302;5.786;2023-08-21T04:32:17;4.80;;;3.00;;
57241;SDS011;43095;53.302;5.786;2023-08-21T04:34:45;6.30;;;3.42;;
57241;SDS011;43095;53.302;5.786;2023-08-21T04:37:12;7.65;;;4.13;;
57241;SDS011;43095;53.302;5.786;2023-08-21T04:39:39;9.35;;;3.75;;
57241;SDS011;43095;53.302;5.786;2023-08-21T04:42:07;5.82;;;3.20;;
57241;SDS011;43095;53.302;5.786;2023-08-21T04:44:34;6.05;;;3.13;;
57241;SDS011;43095;53.302;5.786;2023-08-21T04:47:21;5.45;;;2.90;;
57241;SDS011;43095;53.302;5.786;2023-08-21T04:49:56;4.40;;;2.80;;
57241;SDS011;43095;53.302;5.786;2023-08-21T04:52:24;4.95;;;3.45;;
57241;SDS011;43095;53.302;5.786;2023-08-21T04:54:53;7.50;;;3.22;;
57241;SDS011;43095;53.302;5.786;2023-08-21T04:57:21;7.70;;;3.78;;
57241;SDS011;43095;53.302;5.786;2023-08-21T04:59:49;5.50;;;3.35;;
57241;SDS011;43095;53.302;5.786;2023-08-21T05:02:17;8.82;;;4.20;;
57241;SDS011;43095;53.302;5.786;2023-08-21T05:04:45;7.82;;;4.35;;
57241;SDS011;43095;53.302;5.786;2023-08-21T05:07:12;7.53;;;4.40;;
57241;SDS011;43095;53.302;5.786;2023-08-21T05:09:39;7.78;;;4.60;;
57241;SDS011;43095;53.302;5.786;2023-08-21T05:12:08;6.90;;;4.65;;
57241;SDS011;43095;53.302;5.786;2023-08-21T05:14:35;6.97;;;4.22;;
57241;SDS011;43095;53.302;5.786;2023-08-21T05:17:03;9.70;;;4.20;;
57241;SDS011;43095;53.302;5.786;2023-08-21T05:19:30;7.82;;;3.90;;
57241;SDS011;43095;53.302;5.786;2023-08-21T05:21:58;9.68;;;5.00;;
57241;SDS011;43095;53.302;5.786;2023-08-21T05:24:25;6.28;;;4.10;;
57241;SDS011;43095;53.302;5.786;2023-08-21T05:27:00;5.90;;;3.75;;
57241;SDS011;43095;53.302;5.786;2023-08-21T05:29:27;4.75;;;3.60;;
57241;SDS011;43095;53.302;5.786;2023-08-21T05:31:55;7.15;;;4.13;;
57241;SDS011;43095;53.302;5.786;2023-08-21T05:34:22;4.32;;;3.05;;
57241;SDS011;43095;53.302;5.786;2023-08-21T05:36:50;6.15;;;3.28;;
57241;SDS011;43095;53.302;5.786;2023-08-21T05:39:20;6.35;;;3.53;;
57241;SDS011;43095;53.302;5.786;2023-08-21T05:41:49;6.43;;;3.60;;
57241;SDS011;43095;53.302;5.786;2023-08-21T05:44:19;5.53;;;3.55;;
57241;SDS011;43095;53.302;5.786;2023-08-21T05:46:46;5.60;;;3.40;;
57241;SDS011;43095;53.302;5.786;2023-08-21T05:49:14;5.80;;;4.28;;
57241;SDS011;43095;53.302;5.786;2023-08-21T05:51:42;11.15;;;4.80;;
57241;SDS011;43095;53.302;5.786;2023-08-21T05:54:09;6.03;;;4.38;;
57241;SDS011;43095;53.302;5.786;2023-08-21T05:56:38;9.32;;;5.35;;
57241;SDS011;43095;53.302;5.786;2023-08-21T05:59:05;8.13;;;5.13;;
57241;SDS011;43095;53.302;5.786;2023-08-21T06:01:32;8.27;;;5.70;;
57241;SDS011;43095;53.302;5.786;2023-08-21T06:03:59;6.50;;;4.53;;
57241;SDS011;43095;53.302;5.786;2023-08-21T06:06:40;8.52;;;4.93;;
57241;SDS011;43095;53.302;5.786;2023-08-21T06:09:07;9.85;;;5.60;;
57241;SDS011;43095;53.302;5.786;2023-08-21T06:11:36;14.43;;;5.57;;
57241;SDS011;43095;53.302;5.786;2023-08-21T06:14:05;11.38;;;5.75;;
57241;SDS011;43095;53.302;5.786;2023-08-21T06:16:32;8.63;;;5.78;;
57241;SDS011;43095;53.302;5.786;2023-08-21T06:18:59;11.25;;;6.80;;
57241;SDS011;43095;53.302;5.786;2023-08-21T06:21:27;8.68;;;6.07;;
57241;SDS011;43095;53.302;5.786;2023-08-21T06:23:54;9.50;;;5.85;;
57241;SDS011;43095;53.302;5.786;2023-08-21T06:26:21;8.52;;;6.00;;
57241;SDS011;43095;53.302;5.786;2023-08-21T06:28:49;16.55;;;7.65;;
57241;SDS011;43095;53.302;5.786;2023-08-21T06:31:16;14.48;;;7.72;;
57241;SDS011;43095;53.302;5.786;2023-08-21T06:33:43;11.98;;;7.35;;
57241;SDS011;43095;53.302;5.786;2023-08-21T06:36:10;11.40;;;7.40;;
57241;SDS011;43095;53.302;5.786;2023-08-21T06:38:37;14.48;;;6.97;;
57241;SDS011;43095;53.302;5.786;2023-08-21T06:41:05;11.82;;;6.45;;
57241;SDS011;43095;53.302;5.786;2023-08-21T06:43:38;11.30;;;7.13;;
57241;SDS011;43095;53.302;5.786;2023-08-21T06:46:11;11.05;;;7.90;;
57241;SDS011;43095;53.302;5.786;2023-08-21T06:48:40;15.00;;;7.47;;
57241;SDS011;43095;53.302;5.786;2023-08-21T06:51:08;15.18;;;8.05;;
57241;SDS011;43095;53.302;5.786;2023-08-21T06:53:36;18.20;;;7.40;;
57241;SDS011;43095;53.302;5.786;2023-08-21T06:56:04;13.07;;;6.97;;
57241;SDS011;43095;53.302;5.786;2023-08-21T06:58:31;15.07;;;7.03;;
57241;SDS011;43095;53.302;5.786;2023-08-21T07:00:59;14.40;;;7.45;;
57241;SDS011;43095;53.302;5.786;2023-08-21T07:03:27;17.98;;;7.82;;
57241;SDS011;43095;53.302;5.786;2023-08-21T07:05:57;14.13;;;7.30;;
57241;SDS011;43095;53.302;5.786;2023-08-21T07:08:27;13.50;;;7.13;;
57241;SDS011;43095;53.302;5.786;2023-08-21T07:10:55;15.05;;;7.65;;
57241;SDS011;43095;53.302;5.786;2023-08-21T07:13:22;11.05;;;7.43;;
57241;SDS011;43095;53.302;5.786;2023-08-21T07:15:52;14.63;;;7.15;;
57241;SDS011;43095;53.302;5.786;2023-08-21T07:18:21;12.02;;;7.00;;
57241;SDS011;43095;53.302;5.786;2023-08-21T07:20:51;13.52;;;7.05;;
57241;SDS011;43095;53.302;5.786;2023-08-21T07:23:19;12.23;;;6.63;;
57241;SDS011;43095;53.302;5.786;2023-08-21T07:25:47;17.40;;;6.80;;
57241;SDS011;43095;53.302;5.786;2023-08-21T07:28:14;11.38;;;6.22;;
57241;SDS011;43095;53.302;5.786;2023-08-21T07:30:41;14.63;;;6.30;;
57241;SDS011;43095;53.302;5.786;2023-08-21T07:33:09;14.40;;;6.15;;
57241;SDS011;43095;53.302;5.786;2023-08-21T07:35:36;12.63;;;5.18;;
57241;SDS011;43095;53.302;5.786;2023-08-21T07:38:03;14.88;;;6.00;;
57241;SDS011;43095;53.302;5.786;2023-08-21T07:40:30;11.35;;;4.80;;
57241;SDS011;43095;53.302;5.786;2023-08-21T07:42:58;13.75;;;6.65;;
57241;SDS011;43095;53.302;5.786;2023-08-21T07:45:25;11.60;;;6.20;;
57241;SDS011;43095;53.302;5.786;2023-08-21T07:47:52;17.25;;;6.07;;
57241;SDS011;43095;53.302;5.786;2023-08-21T07:50:39;9.02;;;5.95;;
57241;SDS011;43095;53.302;5.786;2023-08-21T07:53:06;11.50;;;5.45;;
57241;SDS011;43095;53.302;5.786;2023-08-21T07:55:33;9.68;;;5.53;;
57241;SDS011;43095;53.302;5.786;2023-08-21T07:58:00;14.30;;;5.47;;
57241;SDS011;43095;53.302;5.786;2023-08-21T08:00:27;14.20;;;5.55;;
57241;SDS011;43095;53.302;5.786;2023-08-21T08:02:55;10.25;;;4.93;;
57241;SDS011;43095;53.302;5.786;2023-08-21T08:05:22;12.25;;;5.95;;
57241;SDS011;43095;53.302;5.786;2023-08-21T08:07:49;13.00;;;4.65;;
57241;SDS011;43095;53.302;5.786;2023-08-21T08:10:16;12.40;;;5.80;;
57241;SDS011;43095;53.302;5.786;2023-08-21T08:12:43;11.52;;;5.47;;
57241;SDS011;43095;53.302;5.786;2023-08-21T08:15:10;15.48;;;5.57;;
57241;SDS011;43095;53.302;5.786;2023-08-21T08:17:38;11.93;;;5.57;;
57241;SDS011;43095;53.302;5.786;2023-08-21T08:20:05;16.10;;;5.53;;
57241;SDS011;43095;53.302;5.786;2023-08-21T08:22:32;11.02;;;4.97;;
57241;SDS011;43095;53.302;5.786;2023-08-21T08:25:00;9.30;;;5.00;;
57241;SDS011;43095;53.302;5.786;2023-08-21T08:27:27;12.70;;;4.75;;
57241;SDS011;43095;53.302;5.786;2023-08-21T08:29:54;10.50;;;4.65;;
57241;SDS011;43095;53.302;5.786;2023-08-21T08:32:21;14.55;;;4.95;;
57241;SDS011;43095;53.302;5.786;2023-08-21T08:34:48;16.02;;;4.63;;
57241;SDS011;43095;53.302;5.786;2023-08-21T08:37:16;12.23;;;4.75;;
57241;SDS011;43095;53.302;5.786;2023-08-21T08:39:43;8.60;;;4.15;;
57241;SDS011;43095;53.302;5.786;2023-08-21T08:42:13;8.70;;;4.10;;
57241;SDS011;43095;53.302;5.786;2023-08-21T08:44:42;8.73;;;4.03;;
57241;SDS011;43095;53.302;5.786;2023-08-21T08:47:10;9.20;;;4.03;;
57241;SDS011;43095;53.302;5.786;2023-08-21T08:49:38;9.20;;;4.65;;
57241;SDS011;43095;53.302;5.786;2023-08-21T08:52:05;12.32;;;3.55;;
57241;SDS011;43095;53.302;5.786;2023-08-21T08:54:33;8.52;;;3.13;;
57241;SDS011;43095;53.302;5.786;2023-08-21T08:57:02;11.70;;;4.72;;
57241;SDS011;43095;53.302;5.786;2023-08-21T08:59:32;9.90;;;3.20;;
57241;SDS011;43095;53.302;5.786;2023-08-21T09:01:59;11.35;;;3.75;;
57241;SDS011;43095;53.302;5.786;2023-08-21T09:04:27;11.23;;;3.47;;
57241;SDS011;43095;53.302;5.786;2023-08-21T09:07:08;11.57;;;4.63;;
57241;SDS011;43095;53.302;5.786;2023-08-21T09:09:39;11.38;;;4.32;;
57241;SDS011;43095;53.302;5.786;2023-08-21T09:12:11;8.77;;;4.43;;
57241;SDS011;43095;53.302;5.786;2023-08-21T09:14:43;16.55;;;4.63;;
57241;SDS011;43095;53.302;5.786;2023-08-21T09:17:14;9.73;;;4.50;;
57241;SDS011;43095;53.302;5.786;2023-08-21T09:19:42;14.45;;;4.40;;
57241;SDS011;43095;53.302;5.786;2023-08-21T09:22:16;8.95;;;2.95;;
57241;SDS011;43095;53.302;5.786;2023-08-21T09:25:01;10.70;;;3.45;;
57241;SDS011;43095;53.302;5.786;2023-08-21T09:27:33;7.55;;;2.22;;
57241;SDS011;43095;53.302;5.786;2023-08-21T09:30:05;6.75;;;2.28;;
57241;SDS011;43095;53.302;5.786;2023-08-21T09:32:57;8.27;;;2.00;;
57241;SDS011;43095;53.302;5.786;2023-08-21T09:35:24;11.43;;;3.50;;
57241;SDS011;43095;53.302;5.786;2023-08-21T09:37:52;9.90;;;3.95;;
57241;SDS011;43095;53.302;5.786;2023-08-21T09:40:21;14.07;;;3.28;;
57241;SDS011;43095;53.302;5.786;2023-08-21T09:42:58;9.80;;;2.67;;
57241;SDS011;43095;53.302;5.786;2023-08-21T09:45:26;10.88;;;3.25;;
57241;SDS011;43095;53.302;5.786;2023-08-21T09:47:55;9.40;;;2.30;;
57241;SDS011;43095;53.302;5.786;2023-08-21T09:50:25;12.32;;;2.65;;
57241;SDS011;43095;53.302;5.786;2023-08-21T09:52:56;8.43;;;3.20;;
57241;SDS011;43095;53.302;5.786;2023-08-21T09:55:24;9.75;;;2.55;;
57241;SDS011;43095;53.302;5.786;2023-08-21T09:57:54;11.07;;;2.95;;
57241;SDS011;43095;53.302;5.786;2023-08-21T10:00:32;7.20;;;2.72;;
57241;SDS011;43095;53.302;5.786;2023-08-21T10:03:03;9.27;;;2.60;;
57241;SDS011;43095;53.302;5.786;2023-08-21T10:08:07;8.15;;;2.33;;
57241;SDS011;43095;53.302;5.786;2023-08-21T10:10:37;9.48;;;2.20;;
57241;SDS011;43095;53.302;5.786;2023-08-21T10:13:05;5.32;;;1.88;;
57241;SDS011;43095;53.302;5.786;2023-08-21T10:15:34;5.50;;;1.40;;
57241;SDS011;43095;53.302;5.786;2023-08-21T10:18:20;7.72;;;1.88;;
57241;SDS011;43095;53.302;5.786;2023-08-21T10:20:55;7.38;;;1.73;;
57241;SDS011;43095;53.302;5.786;2023-08-21T10:23:24;6.00;;;1.92;;
57241;SDS011;43095;53.302;5.786;2023-08-21T10:25:56;8.00;;;2.55;;
57241;SDS011;43095;53.302;5.786;2023-08-21T10:29:09;8.27;;;2.05;;
57241;SDS011;43095;53.302;5.786;2023-08-21T10:34:05;9.75;;;2.38;;
57241;SDS011;43095;53.302;5.786;2023-08-21T10:41:55;7.35;;;2.25;;
57241;SDS011;43095;53.302;5.786;2023-08-21T10:44:35;6.25;;;1.92;;
57241;SDS011;43095;53.302;5.786;2023-08-21T10:47:37;4.90;;;1.50;;
57241;SDS011;43095;53.302;5.786;2023-08-21T10:50:05;7.05;;;2.33;;
57241;SDS011;43095;53.302;5.786;2023-08-21T10:52:35;8.63;;;2.40;;
57241;SDS011;43095;53.302;5.786;2023-08-21T10:55:06;9.07;;;3.00;;
57241;SDS011;43095;53.302;5.786;2023-08-21T10:57:38;6.20;;;2.33;;
57241;SDS011;43095;53.302;5.786;2023-08-21T11:00:10;8.43;;;2.30;;
57241;SDS011;43095;53.302;5.786;2023-08-21T11:02:40;7.03;;;2.45;;
57241;SDS011;43095;53.302;5.786;2023-08-21T11:05:10;6.03;;;2.10;;
57241;SDS011;43095;53.302;5.786;2023-08-21T11:10:17;9.15;;;2.60;;
57241;SDS011;43095;53.302;5.786;2023-08-21T11:15:22;10.27;;;2.90;;
57241;SDS011;43095;53.302;5.786;2023-08-21T11:17:58;11.13;;;3.78;;
57241;SDS011;43095;53.302;5.786;2023-08-21T11:20:29;6.70;;;2.40;;
57241;SDS011;43095;53.302;5.786;2023-08-21T11:23:04;6.45;;;2.65;;
57241;SDS011;43095;53.302;5.786;2023-08-21T11:25:39;5.53;;;2.78;;
57241;SDS011;43095;53.302;5.786;2023-08-21T11:28:06;10.47;;;2.80;;
57241;SDS011;43095;53.302;5.786;2023-08-21T11:30:34;11.13;;;4.35;;
57241;SDS011;43095;53.302;5.786;2023-08-21T11:33:09;10.05;;;3.90;;
57241;SDS011;43095;53.302;5.786;2023-08-21T11:35:39;10.93;;;3.80;;
57241;SDS011;43095;53.302;5.786;2023-08-21T11:38:14;7.55;;;4.78;;
57241;SDS011;43095;53.302;5.786;2023-08-21T11:40:53;10.63;;;5.35;;
57241;SDS011;43095;53.302;5.786;2023-08-21T11:46:28;13.32;;;5.65;;
57241;SDS011;43095;53.302;5.786;2023-08-21T11:48:55;10.07;;;5.05;;
57241;SDS011;43095;53.302;5.786;2023-08-21T11:51:22;9.10;;;3.85;;
57241;SDS011;43095;53.302;5.786;2023-08-21T11:53:52;7.75;;;4.20;;
57241;SDS011;43095;53.302;5.786;2023-08-21T11:56:19;10.65;;;4.97;;
57241;SDS011;43095;53.302;5.786;2023-08-21T11:58:50;12.57;;;5.90;;
57241;SDS011;43095;53.302;5.786;2023-08-21T12:01:17;13.85;;;5.50;;
57241;SDS011;43095;53.302;5.786;2023-08-21T12:03:46;11.20;;;6.07;;
57241;SDS011;43095;53.302;5.786;2023-08-21T12:06:21;11.18;;;4.32;;
57241;SDS011;43095;53.302;5.786;2023-08-21T12:08:49;12.85;;;5.95;;
57241;SDS011;43095;53.302;5.786;2023-08-21T12:11:16;10.25;;;4.50;;
57241;SDS011;43095;53.302;5.786;2023-08-21T12:13:43;10.43;;;3.72;;
57241;SDS011;43095;53.302;5.786;2023-08-21T12:16:10;10.02;;;4.10;;
57241;SDS011;43095;53.302;5.786;2023-08-21T12:18:38;8.70;;;4.35;;
57241;SDS011;43095;53.302;5.786;2023-08-21T12:21:05;13.82;;;5.38;;
57241;SDS011;43095;53.302;5.786;2023-08-21T12:23:34;7.38;;;3.85;;
57241;SDS011;43095;53.302;5.786;2023-08-21T12:26:01;8.15;;;2.88;;
57241;SDS011;43095;53.302;5.786;2023-08-21T12:28:28;8.38;;;3.30;;
57241;SDS011;43095;53.302;5.786;2023-08-21T12:30:57;7.45;;;1.92;;
57241;SDS011;43095;53.302;5.786;2023-08-21T12:33:24;10.43;;;3.42;;
57241;SDS011;43095;53.302;5.786;2023-08-21T12:35:51;6.53;;;2.30;;
57241;SDS011;43095;53.302;5.786;2023-08-21T12:38:18;6.35;;;1.67;;
57241;SDS011;43095;53.302;5.786;2023-08-21T12:40:47;6.97;;;2.05;;
57241;SDS011;43095;53.302;5.786;2023-08-21T12:43:14;9.38;;;3.05;;
57241;SDS011;43095;53.302;5.786;2023-08-21T12:45:42;5.95;;;2.13;;
57241;SDS011;43095;53.302;5.786;2023-08-21T12:48:10;3.58;;;1.10;;
57241;SDS011;43095;53.302;5.786;2023-08-21T12:50:37;4.93;;;1.27;;
57241;SDS011;43095;53.302;5.786;2023-08-21T12:53:04;4.55;;;1.45;;
57241;SDS011;43095;53.302;5.786;2023-08-21T12:55:31;4.30;;;1.27;;
57241;SDS011;43095;53.302;5.786;2023-08-21T12:57:59;4.75;;;1.83;;
57241;SDS011;43095;53.302;5.786;2023-08-21T13:00:26;6.82;;;2.00;;
57241;SDS011;43095;53.302;5.786;2023-08-21T13:02:53;7.78;;;1.40;;
57241;SDS011;43095;53.302;5.786;2023-08-21T13:05:21;3.47;;;1.38;;
57241;SDS011;43095;53.302;5.786;2023-08-21T13:07:48;7.70;;;1.85;;
57241;SDS011;43095;53.302;5.786;2023-08-21T13:10:15;7.38;;;2.50;;
57241;SDS011;43095;53.302;5.786;2023-08-21T13:12:42;8.57;;;3.53;;
57241;SDS011;43095;53.302;5.786;2023-08-21T13:15:10;6.55;;;2.83;;
57241;SDS011;43095;53.302;5.786;2023-08-21T13:17:37;4.95;;;1.75;;
57241;SDS011;43095;53.302;5.786;2023-08-21T13:20:05;4.07;;;1.75;;
57241;SDS011;43095;53.302;5.786;2023-08-21T13:22:49;8.75;;;3.28;;
57241;SDS011;43095;53.302;5.786;2023-08-21T13:27:46;5.28;;;2.13;;
57241;SDS011;43095;53.302;5.786;2023-08-21T13:30:13;10.80;;;3.00;;
57241;SDS011;43095;53.302;5.786;2023-08-21T13:32:42;8.45;;;3.22;;
57241;SDS011;43095;53.302;5.786;2023-08-21T13:35:10;5.35;;;2.70;;
57241;SDS011;43095;53.302;5.786;2023-08-21T13:37:38;8.20;;;2.88;;
57241;SDS011;43095;53.302;5.786;2023-08-21T13:40:06;6.35;;;2.30;;
57241;SDS011;43095;53.302;5.786;2023-08-21T13:42:43;7.13;;;2.80;;
57241;SDS011;43095;53.302;5.786;2023-08-21T13:45:13;3.70;;;1.58;;
57241;SDS011;43095;53.302;5.786;2023-08-21T13:47:44;9.18;;;2.03;;
57241;SDS011;43095;53.302;5.786;2023-08-21T13:50:17;5.13;;;1.65;;
57241;SDS011;43095;53.302;5.786;2023-08-21T13:52:46;4.30;;;1.25;;
57241;SDS011;43095;53.302;5.786;2023-08-21T13:55:14;6.70;;;1.90;;
57241;SDS011;43095;53.302;5.786;2023-08-21T13:57:42;5.88;;;1.70;;
57241;SDS011;43095;53.302;5.786;2023-08-21T14:00:10;4.60;;;2.15;;
57241;SDS011;43095;53.302;5.786;2023-08-21T14:02:39;6.00;;;2.00;;
57241;SDS011;43095;53.302;5.786;2023-08-21T14:05:08;4.88;;;2.03;;
57241;SDS011;43095;53.302;5.786;2023-08-21T14:07:38;6.03;;;3.15;;
57241;SDS011;43095;53.302;5.786;2023-08-21T14:10:06;7.18;;;3.33;;
57241;SDS011;43095;53.302;5.786;2023-08-21T14:12:34;8.63;;;3.58;;
57241;SDS011;43095;53.302;5.786;2023-08-21T14:15:05;5.97;;;2.38;;
57241;SDS011;43095;53.302;5.786;2023-08-21T14:17:33;7.38;;;2.75;;
57241;SDS011;43095;53.302;5.786;2023-08-21T14:20:00;4.72;;;2.35;;
57241;SDS011;43095;53.302;5.786;2023-08-21T14:22:28;6.18;;;2.33;;
57241;SDS011;43095;53.302;5.786;2023-08-21T14:24:55;5.57;;;2.10;;
57241;SDS011;43095;53.302;5.786;2023-08-21T14:27:22;5.07;;;2.25;;
57241;SDS011;43095;53.302;5.786;2023-08-21T14:29:50;4.47;;;2.00;;
57241;SDS011;43095;53.302;5.786;2023-08-21T14:32:17;8.18;;;2.20;;
57241;SDS011;43095;53.302;5.786;2023-08-21T14:34:44;5.03;;;2.50;;
57241;SDS011;43095;53.302;5.786;2023-08-21T14:37:12;4.60;;;2.00;;
57241;SDS011;43095;53.302;5.786;2023-08-21T14:39:42;6.57;;;2.38;;
57241;SDS011;43095;53.302;5.786;2023-08-21T14:42:09;5.10;;;2.40;;
57241;SDS011;43095;53.302;5.786;2023-08-21T14:44:37;4.75;;;1.80;;
57241;SDS011;43095;53.302;5.786;2023-08-21T14:47:05;7.15;;;2.63;;
57241;SDS011;43095;53.302;5.786;2023-08-21T14:49:34;6.38;;;1.60;;
57241;SDS011;43095;53.302;5.786;2023-08-21T14:52:04;8.73;;;2.00;;
57241;SDS011;43095;53.302;5.786;2023-08-21T14:54:35;4.82;;;2.17;;
57241;SDS011;43095;53.302;5.786;2023-08-21T14:57:02;4.75;;;1.77;;
57241;SDS011;43095;53.302;5.786;2023-08-21T14:59:29;5.80;;;2.17;;
57241;SDS011;43095;53.302;5.786;2023-08-21T15:01:57;6.15;;;2.08;;
57241;SDS011;43095;53.302;5.786;2023-08-21T15:04:24;3.55;;;1.40;;
57241;SDS011;43095;53.302;5.786;2023-08-21T15:06:52;5.50;;;2.45;;
57241;SDS011;43095;53.302;5.786;2023-08-21T15:09:20;8.48;;;2.92;;
57241;SDS011;43095;53.302;5.786;2023-08-21T15:11:47;5.18;;;2.50;;
57241;SDS011;43095;53.302;5.786;2023-08-21T15:14:15;5.18;;;2.60;;
57241;SDS011;43095;53.302;5.786;2023-08-21T15:16:44;4.13;;;2.15;;
57241;SDS011;43095;53.302;5.786;2023-08-21T15:19:11;9.93;;;2.67;;
57241;SDS011;43095;53.302;5.786;2023-08-21T15:21:38;6.43;;;2.70;;